Bluenose II — CYJZ — position and weather

sailwx.info

Track history (hours):
 
Tides and Currents Weather Stations Pressure Air Temp Water Temp Dewpoint Dewpoint Depression Visibility Wind Speed Wind Dir Waves Ship Positions

Bluenose II (Canada)

Ship's website: http://www.schoonerbluenose2.ca/

Last reported at 2018-Sep-03 22:18 UTC. Time now 2019-Feb-22 11:59 UTC.
Position N 42°44' W 069°60'.
Warning: this ship's position is months out of date.

Length 55 m; draft 5 m.

Type: Sailing vessel. MMSI: 316245000.

Date/timePositionNaut miles runAvg speedWind from/ knotsBaromVisibWave heightAir tempDewpointWater temp
2018-Sep-03 22:18N 42°44' W 069°60'2 6.8
2018-Sep-03 22:03N 42°43' W 070°02'1 7.1
2018-Sep-03 21:59N 42°42' W 070°02'4 7.7
2018-Sep-03 21:30N 42°41' W 070°07'3 6.2
2018-Sep-03 21:03N 42°40' W 070°10'0 6.7
2018-Sep-03 21:00N 42°40' W 070°11'3 6.2
2018-Sep-03 20:30N 42°39' W 070°15'3 7.0
2018-Sep-03 20:03N 42°38' W 070°19'0 7.0
2018-Sep-03 20:00N 42°38' W 070°19'4 8.0
2018-Sep-03 19:30N 42°36' W 070°24'4 9.8
2018-Sep-03 19:03N 42°35' W 070°30'110.1
2018-Sep-03 19:00N 42°35' W 070°31'5 9.7
2018-Sep-03 18:30N 42°34' W 070°37'3 6.4
2018-Sep-03 18:03N 42°35' W 070°41'0 6.4
2018-Sep-03 18:00N 42°35' W 070°41'2 3.1
2018-Sep-03 17:29N 42°37' W 070°40'0 0.0
2018-Sep-03 16:59N 42°37' W 070°40'0 0.0
2018-Sep-03 16:29N 42°37' W 070°40'0 0.0
2018-Sep-03 15:29N 42°37' W 070°40'0 0.0
2018-Sep-03 14:59N 42°37' W 070°40'0 0.0
2018-Sep-03 14:29N 42°37' W 070°40'0 0.0
2018-Sep-03 13:53N 42°37' W 070°40'0 0.0
2018-Sep-03 13:29N 42°37' W 070°40'0 0.0
2018-Sep-03 13:02N 42°37' W 070°40'0 0.0
2018-Sep-03 12:59N 42°37' W 070°40'0 0.0
2018-Sep-03 12:29N 42°37' W 070°40'0 0.0
2018-Sep-03 11:59N 42°37' W 070°40'0 0.0
2018-Sep-03 11:29N 42°37' W 070°40'0 0.0
2018-Sep-03 11:02N 42°37' W 070°40'0 0.0
2018-Sep-03 10:59N 42°37' W 070°40'0 0.0
2018-Sep-03 10:29N 42°37' W 070°40'0 0.0
2018-Sep-03 09:59N 42°37' W 070°40'0 0.0
2018-Sep-03 09:29N 42°37' W 070°40'0 0.0
2018-Sep-03 09:02N 42°37' W 070°40'0 0.0
2018-Sep-03 08:59N 42°37' W 070°40'0 0.0
2018-Sep-03 08:29N 42°37' W 070°40'0 0.0
2018-Sep-03 07:59N 42°37' W 070°40'0 0.0
2018-Sep-03 07:29N 42°37' W 070°40'0 0.0
2018-Sep-03 07:02N 42°37' W 070°40'0 0.0
2018-Sep-03 06:53N 42°37' W 070°40'0 0.0
2018-Sep-03 06:29N 42°37' W 070°40'0 0.0
2018-Sep-03 06:02N 42°37' W 070°40'0 0.0
2018-Sep-03 05:59N 42°37' W 070°40'0 0.0
2018-Sep-03 05:29N 42°37' W 070°40'0 0.0
2018-Sep-03 05:02N 42°37' W 070°40'0 0.1
2018-Sep-03 04:59N 42°37' W 070°40'0 0.0
2018-Sep-03 04:29N 42°37' W 070°40'0 0.0
2018-Sep-03 04:02N 42°37' W 070°40'0 0.2
2018-Sep-03 03:59N 42°37' W 070°40'0 0.0
2018-Sep-03 03:29N 42°37' W 070°40'0 0.0
2018-Sep-03 03:02N 42°37' W 070°40'0 0.0
2018-Sep-03 02:59N 42°37' W 070°40'0 0.0
2018-Sep-03 02:29N 42°37' W 070°40'0 0.0
2018-Sep-03 02:02N 42°37' W 070°40'0 0.0
2018-Sep-03 01:56N 42°37' W 070°40'0 0.0
2018-Sep-03 01:29N 42°37' W 070°40'0 0.0
2018-Sep-03 01:02N 42°37' W 070°40'0 0.0
2018-Sep-03 00:56N 42°37' W 070°40'0 0.0
2018-Sep-03 00:29N 42°37' W 070°40'0 0.0
2018-Sep-03 00:02N 42°37' W 070°40'0 0.1
2018-Sep-02 23:59N 42°37' W 070°40'0 0.0
2018-Sep-02 23:29N 42°37' W 070°40'0 0.0
2018-Sep-02 23:02N 42°37' W 070°40'0 0.0
2018-Sep-02 22:53N 42°37' W 070°40'0 0.0
2018-Sep-02 22:29N 42°37' W 070°40'0 0.0
2018-Sep-02 22:02N 42°37' W 070°40'0 0.0
2018-Sep-02 21:59N 42°37' W 070°40'0 0.0
2018-Sep-02 21:26N 42°37' W 070°40'0 0.0
2018-Sep-02 20:57N 42°37' W 070°40'0 0.1
2018-Sep-02 20:30N 42°37' W 070°40'1 1.2
2018-Sep-02 20:03N 42°36' W 070°40'0 2.0
2018-Sep-02 20:00N 42°36' W 070°40'1 2.7
2018-Sep-02 19:30N 42°35' W 070°41'3 6.2
2018-Sep-02 19:03N 42°33' W 070°43'0 6.9
2018-Sep-02 19:00N 42°33' W 070°44'3 3.2
2018-Sep-02 18:03N 42°34' W 070°40'0 0.6
2018-Sep-02 17:30N 42°33' W 070°40'2 5.5
2018-Sep-02 17:03N 42°33' W 070°36'0 4.3
2018-Sep-02 17:00N 42°33' W 070°36'2 3.7
2018-Sep-02 16:30N 42°34' W 070°38'2 4.1
2018-Sep-02 16:03N 42°35' W 070°40'0 5.6
2018-Sep-02 16:00N 42°35' W 070°41'1 1.9
2018-Sep-02 15:30N 42°36' W 070°41'1 1.7
2018-Sep-02 15:03N 42°36' W 070°40'0 2.9
2018-Sep-02 15:00N 42°36' W 070°40'0 0.4
2018-Sep-02 14:29N 42°37' W 070°40'0 0.0
2018-Sep-02 13:59N 42°37' W 070°40'0 0.0
2018-Sep-02 13:29N 42°37' W 070°40'0 0.0
2018-Sep-02 13:02N 42°37' W 070°40'0 0.2
2018-Sep-02 12:59N 42°37' W 070°40'0 0.0
2018-Sep-02 12:29N 42°37' W 070°40'0 0.0
2018-Sep-02 12:02N 42°37' W 070°40'0 0.0
2018-Sep-02 11:59N 42°37' W 070°40'0 0.0
2018-Sep-02 11:26N 42°37' W 070°40'0 0.0
2018-Sep-02 11:02N 42°37' W 070°40'0 0.1
2018-Sep-02 10:59N 42°37' W 070°40'0 0.0
2018-Sep-02 10:29N 42°37' W 070°40'0 0.0
2018-Sep-02 10:02N 42°37' W 070°40'0 0.0
2018-Sep-02 09:59N 42°37' W 070°40'0 0.0
2018-Sep-02 09:23N 42°37' W 070°40'0 0.0
2018-Sep-02 09:02N 42°37' W 070°40'0 0.1
2018-Sep-02 08:59N 42°37' W 070°40'0 0.0
2018-Sep-02 08:26N 42°37' W 070°40'0 0.0
2018-Sep-02 07:56N 42°37' W 070°40'0 0.0
2018-Sep-02 07:29N 42°37' W 070°40'0 0.0
2018-Sep-02 07:02N 42°37' W 070°40'0 0.0
2018-Sep-02 06:56N 42°37' W 070°40'0 0.0
2018-Sep-02 06:29N 42°37' W 070°40'0 0.0
2018-Sep-02 06:02N 42°37' W 070°40'0 0.0
2018-Sep-02 05:59N 42°37' W 070°40'0 0.0
2018-Sep-02 05:29N 42°37' W 070°40'0 0.0
2018-Sep-02 05:02N 42°37' W 070°40'0 0.1
2018-Sep-02 04:59N 42°37' W 070°40'0 0.0
2018-Sep-02 04:26N 42°37' W 070°40'0 0.0
2018-Sep-02 04:02N 42°37' W 070°40'0 0.0
2018-Sep-02 03:56N 42°37' W 070°40'0 0.0
2018-Sep-02 03:29N 42°37' W 070°40'0 0.0
2018-Sep-02 03:02N 42°37' W 070°40'0 0.1
2018-Sep-02 02:59N 42°37' W 070°40'0 0.0
2018-Sep-02 02:29N 42°37' W 070°40'0 0.0
2018-Sep-02 01:56N 42°37' W 070°40'0 0.0
2018-Sep-02 01:29N 42°37' W 070°40'0 0.0
2018-Sep-02 01:02N 42°37' W 070°40'0 0.1
2018-Sep-02 00:59N 42°37' W 070°40'0 0.0
2018-Sep-02 00:29N 42°37' W 070°40'0 0.0
2018-Sep-02 00:02N 42°37' W 070°40'0 0.2
2018-Sep-01 23:59N 42°37' W 070°40'0 0.0
2018-Sep-01 23:29N 42°37' W 070°40'0 0.0
2018-Sep-01 23:02N 42°37' W 070°40'0 0.0
2018-Sep-01 22:59N 42°37' W 070°40'0 0.0
2018-Sep-01 22:29N 42°37' W 070°40'  
Track history (hours):
 
Tides and Currents Weather Stations Pressure Air Temp Water Temp Dewpoint Dewpoint Depression Visibility Wind Speed Wind Dir Waves Ship Positions

Bluenose II (Canada)

Ship's website: http://www.schoonerbluenose2.ca/

Last reported at 2018-Sep-03 22:18 UTC. Time now 2019-Feb-22 11:59 UTC.
Position N 42°44' W 069°60'.
Warning: this ship's position is months out of date.

Length 55 m; draft 5 m.

Type: Sailing vessel. MMSI: 316245000.

Date/timePositionNaut miles runAvg speedWind from/ knotsBaromVisibWave heightAir tempDewpointWater temp
2018-Sep-03 22:18N 42°44' W 069°60'2 6.8
2018-Sep-03 22:03N 42°43' W 070°02'1 7.1
2018-Sep-03 21:59N 42°42' W 070°02'4 7.7
2018-Sep-03 21:30N 42°41' W 070°07'3 6.2
2018-Sep-03 21:03N 42°40' W 070°10'0 6.7
2018-Sep-03 21:00N 42°40' W 070°11'3 6.2
2018-Sep-03 20:30N 42°39' W 070°15'3 7.0
2018-Sep-03 20:03N 42°38' W 070°19'0 7.0
2018-Sep-03 20:00N 42°38' W 070°19'4 8.0
2018-Sep-03 19:30N 42°36' W 070°24'4 9.8
2018-Sep-03 19:03N 42°35' W 070°30'110.1
2018-Sep-03 19:00N 42°35' W 070°31'5 9.7
2018-Sep-03 18:30N 42°34' W 070°37'3 6.4
2018-Sep-03 18:03N 42°35' W 070°41'0 6.4
2018-Sep-03 18:00N 42°35' W 070°41'2 3.1
2018-Sep-03 17:29N 42°37' W 070°40'0 0.0
2018-Sep-03 16:59N 42°37' W 070°40'0 0.0
2018-Sep-03 16:29N 42°37' W 070°40'0 0.0
2018-Sep-03 15:29N 42°37' W 070°40'0 0.0
2018-Sep-03 14:59N 42°37' W 070°40'0 0.0
2018-Sep-03 14:29N 42°37' W 070°40'0 0.0
2018-Sep-03 13:53N 42°37' W 070°40'0 0.0
2018-Sep-03 13:29N 42°37' W 070°40'0 0.0
2018-Sep-03 13:02N 42°37' W 070°40'0 0.0
2018-Sep-03 12:59N 42°37' W 070°40'0 0.0
2018-Sep-03 12:29N 42°37' W 070°40'0 0.0
2018-Sep-03 11:59N 42°37' W 070°40'0 0.0
2018-Sep-03 11:29N 42°37' W 070°40'0 0.0
2018-Sep-03 11:02N 42°37' W 070°40'0 0.0
2018-Sep-03 10:59N 42°37' W 070°40'0 0.0
2018-Sep-03 10:29N 42°37' W 070°40'0 0.0
2018-Sep-03 09:59N 42°37' W 070°40'0 0.0
2018-Sep-03 09:29N 42°37' W 070°40'0 0.0
2018-Sep-03 09:02N 42°37' W 070°40'0 0.0
2018-Sep-03 08:59N 42°37' W 070°40'0 0.0
2018-Sep-03 08:29N 42°37' W 070°40'0 0.0
2018-Sep-03 07:59N 42°37' W 070°40'0 0.0
2018-Sep-03 07:29N 42°37' W 070°40'0 0.0
2018-Sep-03 07:02N 42°37' W 070°40'0 0.0
2018-Sep-03 06:53N 42°37' W 070°40'0 0.0
2018-Sep-03 06:29N 42°37' W 070°40'0 0.0
2018-Sep-03 06:02N 42°37' W 070°40'0 0.0
2018-Sep-03 05:59N 42°37' W 070°40'0 0.0
2018-Sep-03 05:29N 42°37' W 070°40'0 0.0
2018-Sep-03 05:02N 42°37' W 070°40'0 0.1
2018-Sep-03 04:59N 42°37' W 070°40'0 0.0
2018-Sep-03 04:29N 42°37' W 070°40'0 0.0
2018-Sep-03 04:02N 42°37' W 070°40'0 0.2
2018-Sep-03 03:59N 42°37' W 070°40'0 0.0
2018-Sep-03 03:29N 42°37' W 070°40'0 0.0
2018-Sep-03 03:02N 42°37' W 070°40'0 0.0
2018-Sep-03 02:59N 42°37' W 070°40'0 0.0
2018-Sep-03 02:29N 42°37' W 070°40'0 0.0
2018-Sep-03 02:02N 42°37' W 070°40'0 0.0
2018-Sep-03 01:56N 42°37' W 070°40'0 0.0
2018-Sep-03 01:29N 42°37' W 070°40'0 0.0
2018-Sep-03 01:02N 42°37' W 070°40'0 0.0
2018-Sep-03 00:56N 42°37' W 070°40'0 0.0
2018-Sep-03 00:29N 42°37' W 070°40'0 0.0
2018-Sep-03 00:02N 42°37' W 070°40'0 0.1
2018-Sep-02 23:59N 42°37' W 070°40'0 0.0
2018-Sep-02 23:29N 42°37' W 070°40'0 0.0
2018-Sep-02 23:02N 42°37' W 070°40'0 0.0
2018-Sep-02 22:53N 42°37' W 070°40'0 0.0
2018-Sep-02 22:29N 42°37' W 070°40'0 0.0
2018-Sep-02 22:02N 42°37' W 070°40'0 0.0
2018-Sep-02 21:59N 42°37' W 070°40'0 0.0
2018-Sep-02 21:26N 42°37' W 070°40'0 0.0
2018-Sep-02 20:57N 42°37' W 070°40'0 0.1
2018-Sep-02 20:30N 42°37' W 070°40'1 1.2
2018-Sep-02 20:03N 42°36' W 070°40'0 2.0
2018-Sep-02 20:00N 42°36' W 070°40'1 2.7
2018-Sep-02 19:30N 42°35' W 070°41'3 6.2
2018-Sep-02 19:03N 42°33' W 070°43'0 6.9
2018-Sep-02 19:00N 42°33' W 070°44'3 3.2
2018-Sep-02 18:03N 42°34' W 070°40'0 0.6
2018-Sep-02 17:30N 42°33' W 070°40'2 5.5
2018-Sep-02 17:03N 42°33' W 070°36'0 4.3
2018-Sep-02 17:00N 42°33' W 070°36'2 3.7
2018-Sep-02 16:30N 42°34' W 070°38'2 4.1
2018-Sep-02 16:03N 42°35' W 070°40'0 5.6
2018-Sep-02 16:00N 42°35' W 070°41'1 1.9
2018-Sep-02 15:30N 42°36' W 070°41'1 1.7
2018-Sep-02 15:03N 42°36' W 070°40'0 2.9
2018-Sep-02 15:00N 42°36' W 070°40'0 0.4
2018-Sep-02 14:29N 42°37' W 070°40'0 0.0
2018-Sep-02 13:59N 42°37' W 070°40'0 0.0
2018-Sep-02 13:29N 42°37' W 070°40'0 0.0
2018-Sep-02 13:02N 42°37' W 070°40'0 0.2
2018-Sep-02 12:59N 42°37' W 070°40'0 0.0
2018-Sep-02 12:29N 42°37' W 070°40'0 0.0
2018-Sep-02 12:02N 42°37' W 070°40'0 0.0
2018-Sep-02 11:59N 42°37' W 070°40'0 0.0
2018-Sep-02 11:26N 42°37' W 070°40'0 0.0
2018-Sep-02 11:02N 42°37' W 070°40'0 0.1
2018-Sep-02 10:59N 42°37' W 070°40'0 0.0
2018-Sep-02 10:29N 42°37' W 070°40'0 0.0
2018-Sep-02 10:02N 42°37' W 070°40'0 0.0
2018-Sep-02 09:59N 42°37' W 070°40'0 0.0
2018-Sep-02 09:23N 42°37' W 070°40'0 0.0
2018-Sep-02 09:02N 42°37' W 070°40'0 0.1
2018-Sep-02 08:59N 42°37' W 070°40'0 0.0
2018-Sep-02 08:26N 42°37' W 070°40'0 0.0
2018-Sep-02 07:56N 42°37' W 070°40'0 0.0
2018-Sep-02 07:29N 42°37' W 070°40'0 0.0
2018-Sep-02 07:02N 42°37' W 070°40'0 0.0
2018-Sep-02 06:56N 42°37' W 070°40'0 0.0
2018-Sep-02 06:29N 42°37' W 070°40'0 0.0
2018-Sep-02 06:02N 42°37' W 070°40'0 0.0
2018-Sep-02 05:59N 42°37' W 070°40'0 0.0
2018-Sep-02 05:29N 42°37' W 070°40'0 0.0
2018-Sep-02 05:02N 42°37' W 070°40'0 0.1
2018-Sep-02 04:59N 42°37' W 070°40'0 0.0
2018-Sep-02 04:26N 42°37' W 070°40'0 0.0
2018-Sep-02 04:02N 42°37' W 070°40'0 0.0
2018-Sep-02 03:56N 42°37' W 070°40'0 0.0
2018-Sep-02 03:29N 42°37' W 070°40'0 0.0
2018-Sep-02 03:02N 42°37' W 070°40'0 0.1
2018-Sep-02 02:59N 42°37' W 070°40'0 0.0
2018-Sep-02 02:29N 42°37' W 070°40'0 0.0
2018-Sep-02 01:56N 42°37' W 070°40'0 0.0
2018-Sep-02 01:29N 42°37' W 070°40'0 0.0
2018-Sep-02 01:02N 42°37' W 070°40'0 0.1
2018-Sep-02 00:59N 42°37' W 070°40'0 0.0
2018-Sep-02 00:29N 42°37' W 070°40'0 0.0
2018-Sep-02 00:02N 42°37' W 070°40'0 0.2
2018-Sep-01 23:59N 42°37' W 070°40'0 0.0
2018-Sep-01 23:29N 42°37' W 070°40'0 0.0
2018-Sep-01 23:02N 42°37' W 070°40'0 0.0
2018-Sep-01 22:59N 42°37' W 070°40'0 0.0
2018-Sep-01 22:29N 42°37' W 070°40'  

Dump ship's entire track history